Time;durP1;ratioP1;P1;durP2;ratioP2;P2;SDS_P1;SDS_P2;PMS_P1;PMS_P2;Temp;Humidity;BMP_temperature;BMP_pressure;BME280_temperature;BME280_humidity;BME280_pressure;Samples;Min_cycle;Max_cycle;Signal;HPM_P1;HPM_P2
2020/12/25 00:00:48;;;;;;;9.73;2.60;;;;;;;1.42;93.93;101747.72;4978010;28;20084;-78
2020/12/25 00:03:15;;;;;;;8.65;2.55;;;;;;;1.46;93.83;101756.19;4988201;28;20073;-78
2020/12/25 00:05:44;;;;;;;8.10;3.15;;;;;;;1.43;94.94;101754.56;4981032;28;20128;-78
2020/12/25 00:08:10;;;;;;;11.02;2.45;;;;;;;1.49;92.62;101751.72;4993124;28;20039;-77
2020/12/25 00:10:35;;;;;;;12.27;3.25;;;;;;;1.47;94.22;101757.84;4997943;28;20060;-78
2020/12/25 00:13:01;;;;;;;12.00;3.45;;;;;;;1.51;95.06;101757.69;5014275;28;20049;-78
2020/12/25 00:15:26;;;;;;;5.70;2.80;;;;;;;1.42;94.30;101762.41;4973539;28;20042;-78
2020/12/25 00:17:52;;;;;;;7.47;2.70;;;;;;;1.44;94.78;101760.59;4994557;28;20039;-78
2020/12/25 00:20:17;;;;;;;9.18;2.40;;;;;;;1.45;94.09;101762.25;4997476;28;20445;-78
2020/12/25 00:22:43;;;;;;;11.00;3.28;;;;;;;1.39;95.33;101765.94;4997834;28;20061;-78
2020/12/25 00:25:08;;;;;;;10.68;3.33;;;;;;;1.33;96.05;101763.59;4997044;28;20046;-78
2020/12/25 00:27:34;;;;;;;11.85;2.92;;;;;;;1.36;96.10;101771.25;5008031;28;20432;-78
2020/12/25 00:30:00;;;;;;;12.93;3.17;;;;;;;1.46;95.66;101766.53;4989143;28;20038;-79
2020/12/25 00:32:26;;;;;;;10.18;2.97;;;;;;;1.34;95.97;101766.13;4991805;28;20074;-79
2020/12/25 00:34:52;;;;;;;10.02;3.15;;;;;;;1.32;96.03;101772.28;5006456;28;20041;-78
2020/12/25 00:37:17;;;;;;;8.95;3.17;;;;;;;1.27;96.52;101761.25;4996462;28;20030;-78
2020/12/25 00:39:43;;;;;;;15.82;3.30;;;;;;;1.31;96.73;101773.16;4982147;28;20522;-78
2020/12/25 00:42:10;;;;;;;13.45;3.75;;;;;;;1.36;96.46;101786.75;4961635;28;20043;-78
2020/12/25 00:44:36;;;;;;;12.35;3.30;;;;;;;1.33;96.39;101785.09;4961526;28;20030;-79
2020/12/25 00:47:02;;;;;;;5.15;2.92;;;;;;;1.34;95.56;101791.97;4987605;28;20819;-80
2020/12/25 00:49:27;;;;;;;11.88;3.67;;;;;;;1.36;95.26;101789.34;5013256;28;20030;-79
2020/12/25 00:51:53;;;;;;;14.90;3.30;;;;;;;1.29;96.18;101787.88;4971530;28;20064;-80
2020/12/25 00:54:19;;;;;;;15.13;3.45;;;;;;;1.30;96.26;101792.13;4983547;28;20476;-78
2020/12/25 00:56:54;;;;;;;13.38;2.88;;;;;;;1.34;96.28;101788.56;4965627;28;20042;-79
2020/12/25 00:59:29;;;;;;;9.90;3.05;;;;;;;1.41;96.25;101792.56;4977876;28;20045;-80
2020/12/25 01:01:54;;;;;;;11.10;3.10;;;;;;;1.30;96.02;101795.59;4997887;28;20034;-79
2020/12/25 01:04:20;;;;;;;10.48;3.28;;;;;;;1.27;95.42;101787.94;4998682;28;20069;-80
2020/12/25 01:06:45;;;;;;;13.27;3.00;;;;;;;1.33;95.99;101790.28;4992171;28;20464;-79
2020/12/25 01:09:12;;;;;;;8.50;3.05;;;;;;;1.36;95.78;101791.91;4983511;28;20412;-80
2020/12/25 01:11:38;;;;;;;8.63;3.22;;;;;;;1.35;95.52;101800.56;4986367;28;20047;-79
2020/12/25 01:14:04;;;;;;;10.57;3.08;;;;;;;1.30;95.25;101797.31;5011309;28;20038;-79
2020/12/25 01:16:29;;;;;;;14.45;3.10;;;;;;;1.34;94.53;101809.25;5003601;28;20096;-81
2020/12/25 01:18:54;;;;;;;13.80;3.58;;;;;;;1.22;95.96;101814.88;4992548;28;20034;-81
2020/12/25 01:21:20;;;;;;;8.93;3.45;;;;;;;1.28;95.26;101814.63;4986941;28;20502;-80
2020/12/25 01:23:45;;;;;;;6.50;4.18;;;;;;;1.23;95.66;101824.31;5018688;28;20042;-79
2020/12/25 01:26:12;;;;;;;13.50;4.40;;;;;;;1.14;95.75;101831.50;4984778;28;20046;-81
2020/12/25 01:28:38;;;;;;;7.47;3.33;;;;;;;1.14;95.75;101830.69;5000943;28;20042;-80
2020/12/25 01:31:05;;;;;;;11.13;4.18;;;;;;;1.12;95.93;101829.91;5014092;28;20594;-80
2020/12/25 01:33:32;;;;;;;6.57;2.90;;;;;;;1.06;96.11;101841.31;4997022;28;20039;-79
2020/12/25 01:35:57;;;;;;;9.15;3.50;;;;;;;1.06;95.64;101838.72;4964576;28;20060;-81
2020/12/25 01:38:23;;;;;;;9.13;3.85;;;;;;;1.07;96.44;101842.16;4989233;28;20034;-80
2020/12/25 01:40:48;;;;;;;11.63;3.30;;;;;;;1.20;95.48;101852.88;4982210;28;20062;-81
2020/12/25 01:43:14;;;;;;;9.23;3.70;;;;;;;1.11;95.37;101848.88;4991591;28;20038;-80
2020/12/25 01:45:40;;;;;;;12.75;4.03;;;;;;;1.13;95.29;101847.94;4983812;28;20034;-79
2020/12/25 01:48:06;;;;;;;11.75;4.32;;;;;;;1.14;95.59;101841.84;5012612;28;20388;-80
2020/12/25 01:50:34;;;;;;;15.30;4.15;;;;;;;1.11;96.35;101849.75;5014731;28;20065;-81
2020/12/25 01:53:02;;;;;;;9.85;4.18;;;;;;;1.09;95.57;101848.97;4982527;28;20132;-80
2020/12/25 01:55:30;;;;;;;10.10;3.38;;;;;;;1.11;95.38;101847.16;5014844;28;20465;-79
2020/12/25 01:57:58;;;;;;;13.88;3.72;;;;;;;1.02;95.72;101847.50;4998572;28;20061;-80
2020/12/25 02:00:23;;;;;;;10.88;3.53;;;;;;;0.95;95.89;101840.88;4981989;28;20124;-81
2020/12/25 02:02:49;;;;;;;14.50;3.58;;;;;;;0.74;95.36;101850.25;4996923;28;20500;-80
2020/12/25 02:05:15;;;;;;;9.57;3.38;;;;;;;0.70;95.86;101853.88;4997484;28;20042;-80
2020/12/25 02:07:42;;;;;;;11.38;3.15;;;;;;;0.51;95.78;101843.31;4980554;28;20776;-79
2020/12/25 02:10:09;;;;;;;17.40;3.75;;;;;;;0.35;95.81;101859.34;4996048;28;20038;-78
2020/12/25 02:12:36;;;;;;;10.40;3.50;;;;;;;0.24;95.67;101861.47;4996898;28;20042;-79
2020/12/25 02:15:02;;;;;;;9.30;3.10;;;;;;;0.15;96.09;101859.19;4995420;28;20049;-79
2020/12/25 02:17:27;;;;;;;6.82;3.22;;;;;;;-0.01;96.00;101858.88;4997498;28;20045;-79
2020/12/25 02:19:52;;;;;;;18.20;3.38;;;;;;;0.00;96.26;101868.31;4997008;28;20046;-79
2020/12/25 02:22:18;;;;;;;12.57;3.83;;;;;;;-0.02;96.28;101867.50;5001430;28;20444;-79
2020/12/25 02:24:43;;;;;;;11.40;3.38;;;;;;;-0.23;96.56;101867.34;4988879;28;20034;-79
2020/12/25 02:27:09;;;;;;;8.93;3.50;;;;;;;-0.31;97.05;101877.03;4979165;28;20039;-79
2020/12/25 02:29:34;;;;;;;7.45;3.60;;;;;;;-0.36;97.14;101878.06;4982469;28;20126;-80
2020/12/25 02:32:00;;;;;;;13.65;3.15;;;;;;;-0.36;97.05;101889.22;4998618;28;20030;-79
2020/12/25 02:34:25;;;;;;;13.88;3.65;;;;;;;-0.37;97.33;101886.72;4984695;28;20436;-79
2020/12/25 02:36:51;;;;;;;16.48;3.83;;;;;;;-0.36;96.71;101889.22;4995121;28;20044;-78
2020/12/25 02:39:16;;;;;;;15.63;3.28;;;;;;;-0.41;97.05;101891.94;5011723;28;20038;-79
2020/12/25 02:41:42;;;;;;;9.20;3.63;;;;;;;-0.38;96.96;101879.84;4995932;28;20067;-79
2020/12/25 02:44:07;;;;;;;11.50;3.78;;;;;;;-0.56;96.99;101887.28;5011670;28;20517;-79
2020/12/25 02:46:33;;;;;;;12.10;4.13;;;;;;;-0.41;96.85;101891.94;4996337;28;20074;-80
2020/12/25 02:48:58;;;;;;;11.75;4.10;;;;;;;-0.51;96.94;101882.81;5010989;28;20038;-80
2020/12/25 02:51:23;;;;;;;13.63;3.60;;;;;;;-0.51;97.13;101897.41;4991601;28;20450;-79
2020/12/25 02:53:49;;;;;;;10.75;4.10;;;;;;;-0.48;96.92;101902.50;4975427;28;20040;-79
2020/12/25 02:56:16;;;;;;;10.80;3.80;;;;;;;-0.59;96.95;101897.66;4995121;28;20033;-79
2020/12/25 02:58:42;;;;;;;16.92;4.07;;;;;;;-0.74;97.42;101900.69;4995220;28;20045;-79
2020/12/25 03:01:15;;;;;;;12.40;3.72;;;;;;;-0.76;97.01;101912.78;5001406;28;20031;-78
2020/12/25 03:03:42;;;;;;;8.05;3.28;;;;;;;-0.84;97.65;101910.44;4992190;28;20404;-79
2020/12/25 03:06:08;;;;;;;9.00;3.30;;;;;;;-0.87;97.74;101918.25;4986679;28;20031;-79
2020/12/25 03:08:34;;;;;;;13.60;4.18;;;;;;;-0.96;98.14;101914.22;4974853;28;20089;-80
2020/12/25 03:11:00;;;;;;;19.75;4.15;;;;;;;-0.92;98.34;101917.50;4996715;28;20038;-79
2020/12/25 03:13:25;;;;;;;9.82;3.30;;;;;;;-0.86;98.14;101914.78;4987218;28;20374;-79
2020/12/25 03:15:51;;;;;;;12.27;3.33;;;;;;;-0.90;97.81;101918.34;4990968;28;20089;-79
2020/12/25 03:18:17;;;;;;;13.95;3.58;;;;;;;-0.99;97.37;101917.69;4995449;28;20169;-79
2020/12/25 03:20:42;;;;;;;11.93;3.67;;;;;;;-1.03;97.76;101918.69;4995035;28;20038;-78
2020/12/25 03:23:08;;;;;;;13.55;3.40;;;;;;;-1.16;97.92;101919.06;4995230;28;20038;-78
2020/12/25 03:25:33;;;;;;;12.77;2.50;;;;;;;-1.05;97.80;101917.88;4992325;28;20038;-79
2020/12/25 03:27:59;;;;;;;12.88;2.97;;;;;;;-1.19;98.34;101918.28;4986335;28;20125;-79
2020/12/25 03:30:24;;;;;;;13.85;3.00;;;;;;;-1.23;97.93;101926.09;4999259;28;20030;-78
2020/12/25 03:32:50;;;;;;;10.05;2.67;;;;;;;-1.29;98.07;101932.25;4997288;28;20037;-78
2020/12/25 03:35:16;;;;;;;11.05;2.75;;;;;;;-1.26;98.21;101929.63;4991919;28;20124;-78
2020/12/25 03:37:42;;;;;;;11.52;2.72;;;;;;;-1.20;97.87;101926.03;5000058;28;20148;-78
2020/12/25 03:40:07;;;;;;;12.52;2.83;;;;;;;-1.22;97.64;101933.78;4994107;28;20477;-78
2020/12/25 03:42:33;;;;;;;6.38;2.30;;;;;;;-1.27;98.09;101924.50;4990295;28;20555;-78
2020/12/25 03:44:58;;;;;;;11.95;2.58;;;;;;;-1.28;97.94;101940.81;4998244;28;20554;-79
2020/12/25 03:47:25;;;;;;;13.80;2.97;;;;;;;-1.45;97.88;101921.53;4982050;28;20125;-78
2020/12/25 03:49:51;;;;;;;6.72;2.03;;;;;;;-1.44;98.02;101937.81;5004062;28;20413;-79
2020/12/25 03:52:16;;;;;;;12.13;2.80;;;;;;;-1.35;98.05;101942.72;4999947;28;20041;-78
2020/12/25 03:54:42;;;;;;;13.13;2.72;;;;;;;-1.35;97.91;101945.31;4967331;28;20038;-78
2020/12/25 03:57:07;;;;;;;9.25;2.47;;;;;;;-1.40;98.21;101942.00;4982480;28;20042;-78
2020/12/25 03:59:33;;;;;;;10.52;2.15;;;;;;;-1.28;97.58;101933.09;5000096;28;20661;-79
2020/12/25 04:01:58;;;;;;;18.17;2.22;;;;;;;-1.28;97.49;101943.41;4984390;28;20062;-79
2020/12/25 04:04:24;;;;;;;10.10;2.00;;;;;;;-1.30;97.72;101940.88;4981349;28;20045;-78
2020/12/25 04:06:49;;;;;;;8.63;2.08;;;;;;;-1.27;96.96;101950.25;4996491;28;20120;-78
2020/12/25 04:09:14;;;;;;;11.48;2.30;;;;;;;-1.29;97.04;101940.00;4995631;28;20042;-77
2020/12/25 04:11:40;;;;;;;10.80;2.17;;;;;;;-1.29;96.83;101936.56;4975085;28;20133;-78
2020/12/25 04:14:07;;;;;;;9.63;1.90;;;;;;;-1.39;97.46;101941.13;5011889;28;20073;-78
2020/12/25 04:16:33;;;;;;;9.00;2.15;;;;;;;-1.41;97.39;101938.59;4990765;28;20058;-78
2020/12/25 04:18:58;;;;;;;11.85;1.95;;;;;;;-1.41;97.04;101937.75;4986319;28;20136;-78
2020/12/25 04:21:24;;;;;;;7.97;1.40;;;;;;;-1.37;97.17;101952.22;4989727;28;20045;-78
2020/12/25 04:23:51;;;;;;;10.00;2.22;;;;;;;-1.42;97.35;101956.63;4998628;28;20030;-78
2020/12/25 04:26:17;;;;;;;19.67;2.50;;;;;;;-1.43;97.42;101962.66;4981863;28;20058;-78
2020/12/25 04:28:43;;;;;;;9.15;1.70;;;;;;;-1.48;97.12;101969.66;4981647;28;20044;-78
2020/12/25 04:31:08;;;;;;;10.23;2.20;;;;;;;-1.57;97.40;101963.84;4998115;28;20038;-78
2020/12/25 04:33:34;;;;;;;8.88;1.58;;;;;;;-1.57;97.44;101971.56;4998148;28;20436;-78
2020/12/25 04:36:00;;;;;;;11.98;2.00;;;;;;;-1.64;97.83;101967.50;4991686;28;20081;-79
2020/12/25 04:38:25;;;;;;;15.27;2.17;;;;;;;-1.58;97.66;101969.06;4978577;28;20065;-79
2020/12/25 04:40:51;;;;;;;12.73;2.28;;;;;;;-1.60;97.50;101969.09;4988288;28;20046;-78
2020/12/25 04:43:17;;;;;;;12.60;2.22;;;;;;;-1.69;97.78;101971.91;4962305;28;20041;-78
2020/12/25 04:45:43;;;;;;;9.00;2.15;;;;;;;-1.74;97.89;101970.31;5053313;22;20507;-77
2020/12/25 04:48:09;;;;;;;14.45;2.33;;;;;;;-1.77;98.38;101971.25;5028332;28;20047;-78
2020/12/25 04:50:35;;;;;;;6.78;1.80;;;;;;;-1.80;98.42;101967.00;5031600;28;20025;-78
2020/12/25 04:53:01;;;;;;;6.78;1.98;;;;;;;-1.76;98.10;101975.50;5030697;28;20084;-78
2020/12/25 04:55:26;;;;;;;12.27;2.28;;;;;;;-1.80;97.82;101982.44;5014714;28;20045;-79
2020/12/25 04:57:54;;;;;;;10.13;1.83;;;;;;;-1.88;98.25;101983.53;5031854;28;20096;-78
2020/12/25 05:00:23;;;;;;;6.43;1.75;;;;;;;-1.95;98.39;101969.94;5014530;28;20116;-78
2020/12/25 05:02:50;;;;;;;7.30;1.88;;;;;;;-1.85;98.56;101991.13;5010943;28;20045;-79
2020/12/25 05:05:17;;;;;;;6.47;2.00;;;;;;;-1.91;98.28;101988.72;5016494;28;20391;-78
2020/12/25 05:07:45;;;;;;;12.23;2.10;;;;;;;-1.88;98.53;101994.66;5014836;28;20060;-77
2020/12/25 05:10:10;;;;;;;6.70;1.98;;;;;;;-1.90;98.31;101988.69;5019650;28;20087;-77
2020/12/25 05:12:36;;;;;;;12.98;2.00;;;;;;;-1.91;98.13;101991.28;5010869;28;20046;-78
2020/12/25 05:15:10;;;;;;;9.43;1.80;;;;;;;-1.90;98.10;101988.69;5013947;28;20036;-77
2020/12/25 05:17:36;;;;;;;8.93;2.05;;;;;;;-1.90;98.10;101988.69;5031393;28;20029;-77
2020/12/25 05:20:05;;;;;;;5.65;1.65;;;;;;;-1.92;98.19;101993.03;5015376;28;20042;-78
2020/12/25 05:22:31;;;;;;;7.95;2.30;;;;;;;-1.96;98.44;101997.41;4996600;28;20080;-77
2020/12/25 05:25:01;;;;;;;8.05;2.70;;;;;;;-2.04;98.14;102001.84;5011883;28;20080;-76
2020/12/25 05:27:27;;;;;;;9.40;2.60;;;;;;;-2.09;98.18;102001.13;4998192;28;20040;-77
2020/12/25 05:29:56;;;;;;;12.75;2.67;;;;;;;-2.02;98.08;102007.78;5013331;28;20049;-77
2020/12/25 05:32:26;;;;;;;11.93;2.97;;;;;;;-2.09;98.07;102007.97;5013505;28;20045;-78
2020/12/25 05:34:54;;;;;;;11.70;2.97;;;;;;;-2.11;98.18;102000.31;5029585;28;20399;-78
2020/12/25 05:37:21;;;;;;;11.55;2.58;;;;;;;-2.07;97.57;102001.94;5007639;28;20021;-78
2020/12/25 05:39:47;;;;;;;5.72;2.30;;;;;;;-2.01;97.60;102006.09;5030969;28;20108;-77
2020/12/25 05:42:12;;;;;;;11.85;2.10;;;;;;;-2.09;97.88;102007.97;5030914;28;20112;-76
2020/12/25 05:44:48;;;;;;;9.40;2.10;;;;;;;-2.06;97.52;102011.31;5030828;28;20120;-78
2020/12/25 05:47:17;;;;;;;12.07;2.60;;;;;;;-2.09;97.31;102008.84;5031093;28;20026;-79
2020/12/25 05:49:43;;;;;;;9.80;2.28;;;;;;;-2.14;97.85;102008.09;5029924;28;20080;-80
2020/12/25 05:52:09;;;;;;;9.00;1.90;;;;;;;-2.18;97.66;102009.03;4998177;28;20134;-75
2020/12/25 05:54:35;;;;;;;12.15;2.00;;;;;;;-2.18;98.22;102017.59;4997106;28;20041;-78
2020/12/25 05:57:02;;;;;;;9.07;2.20;;;;;;;-2.16;98.12;102017.56;4998119;28;20495;-77
2020/12/25 05:59:31;;;;;;;9.20;2.05;;;;;;;-2.21;98.11;102033.06;5009831;28;20037;-78
2020/12/25 06:01:59;;;;;;;10.32;2.10;;;;;;;-2.27;97.72;102027.22;5012763;28;20041;-77
2020/12/25 06:04:26;;;;;;;9.35;2.95;;;;;;;-2.28;98.30;102038.38;5010302;28;20048;-78
2020/12/25 06:06:52;;;;;;;10.20;2.33;;;;;;;-2.28;98.46;102036.66;5018850;28;20036;-78
2020/12/25 06:09:19;;;;;;;15.57;2.30;;;;;;;-2.24;98.28;102037.44;5029846;28;20075;-76
2020/12/25 06:11:49;;;;;;;7.25;2.15;;;;;;;-2.26;98.25;102037.47;5029090;28;20034;-77
2020/12/25 06:14:15;;;;;;;9.88;2.55;;;;;;;-2.26;98.22;102042.63;4997110;28;20041;-77
2020/12/25 06:16:51;;;;;;;10.30;1.92;;;;;;;-2.22;98.11;102048.53;5014002;28;20080;-77
2020/12/25 06:19:33;;;;;;;9.65;2.20;;;;;;;-2.31;97.78;102049.56;5032436;28;20037;-79
2020/12/25 06:22:00;;;;;;;6.70;2.00;;;;;;;-2.35;97.63;102058.22;5015890;28;20546;-77
2020/12/25 06:24:31;;;;;;;15.85;2.90;;;;;;;-2.40;98.02;102055.72;5011314;28;20131;-79
2020/12/25 06:27:01;;;;;;;8.60;2.40;;;;;;;-2.40;97.78;102063.44;5013686;28;20026;-79
2020/12/25 06:29:29;;;;;;;7.93;2.10;;;;;;;-2.37;97.67;102062.56;5032450;28;20045;-78
2020/12/25 06:31:57;;;;;;;5.18;1.98;;;;;;;-2.36;97.55;102062.50;4997978;28;20037;-77
2020/12/25 06:34:38;;;;;;;7.82;2.05;;;;;;;-2.41;98.20;102059.19;5013836;28;20037;-78
2020/12/25 06:37:07;;;;;;;8.20;2.22;;;;;;;-2.37;97.95;102067.69;5012924;28;20049;-78
2020/12/25 06:39:33;;;;;;;12.75;2.30;;;;;;;-2.36;98.23;102072.78;4989956;28;20045;-78
2020/12/25 06:41:58;;;;;;;11.40;1.92;;;;;;;-2.38;98.14;102071.13;5030702;28;20612;-78
2020/12/25 06:44:29;;;;;;;9.98;1.95;;;;;;;-2.42;98.05;102072.91;5030155;28;20038;-77
2020/12/25 06:47:02;;;;;;;3.38;1.35;;;;;;;-2.44;98.02;102073.81;5029764;28;20080;-76
2020/12/25 06:49:33;;;;;;;6.43;1.67;;;;;;;-2.47;98.51;102076.44;5030803;28;20045;-78
2020/12/25 06:51:59;;;;;;;5.43;1.50;;;;;;;-2.49;98.02;102084.19;5030250;28;20187;-77
2020/12/25 06:54:26;;;;;;;10.10;1.77;;;;;;;-2.51;98.53;102074.81;5029085;28;20029;-76
2020/12/25 06:56:53;;;;;;;7.13;1.80;;;;;;;-2.46;98.30;102088.44;4998837;28;20084;-77
2020/12/25 06:59:21;;;;;;;9.10;1.52;;;;;;;-2.51;98.56;102091.06;4995393;28;20547;-76
2020/12/25 07:01:48;;;;;;;13.48;2.05;;;;;;;-2.45;98.39;102083.28;5016060;28;20033;-77
2020/12/25 07:04:30;;;;;;;6.97;2.08;;;;;;;-2.37;98.07;102076.25;5029129;28;20387;-77
2020/12/25 07:06:59;;;;;;;7.80;1.38;;;;;;;-2.44;98.05;102082.38;4993921;28;20018;-78
2020/12/25 07:09:40;;;;;;;7.00;1.60;;;;;;;-2.46;97.77;102086.69;5028603;28;20036;-78
2020/12/25 07:12:12;;;;;;;7.20;1.70;;;;;;;-2.48;98.09;102088.47;5027666;28;20091;-75
2020/12/25 07:14:37;;;;;;;8.18;1.73;;;;;;;-2.51;97.83;102092.81;5030200;28;20384;-75
2020/12/25 07:17:03;;;;;;;7.30;1.40;;;;;;;-2.59;97.89;102090.38;5029553;28;20084;-78
2020/12/25 07:19:28;;;;;;;6.70;1.42;;;;;;;-2.58;97.95;102095.50;5029638;28;20038;-77
2020/12/25 07:21:54;;;;;;;8.43;1.63;;;;;;;-2.61;97.79;102097.28;5030834;28;20506;-77
2020/12/25 07:24:19;;;;;;;8.52;1.55;;;;;;;-2.52;97.43;102106.50;5028680;28;20044;-78
2020/12/25 07:26:52;;;;;;;7.90;1.50;;;;;;;-2.60;97.44;102104.09;5030568;28;20042;-76
2020/12/25 07:29:19;;;;;;;4.35;1.27;;;;;;;-2.46;97.41;102117.53;5021610;28;20040;-78
2020/12/25 07:31:49;;;;;;;6.72;1.80;;;;;;;-2.46;97.34;102122.69;5029672;28;20084;-78
2020/12/25 07:34:19;;;;;;;13.25;1.70;;;;;;;-2.46;96.85;102126.97;5013024;28;20550;-77
2020/12/25 07:36:46;;;;;;;5.65;1.75;;;;;;;-2.53;97.11;102126.22;5029097;28;20033;-78
2020/12/25 07:39:11;;;;;;;15.65;2.45;;;;;;;-2.51;97.20;102139.06;5029685;28;20061;-77
2020/12/25 07:41:37;;;;;;;12.07;2.08;;;;;;;-2.47;97.16;102133.81;5012528;28;20491;-75
2020/12/25 07:44:03;;;;;;;7.00;1.75;;;;;;;-2.40;96.83;102147.41;5030595;28;20049;-75
2020/12/25 07:46:33;;;;;;;12.45;2.20;;;;;;;-2.52;96.85;102152.75;5025463;28;20121;-78
2020/12/25 07:48:59;;;;;;;16.15;2.85;;;;;;;-2.54;97.09;102152.81;5029652;28;20061;-75
2020/12/25 07:51:25;;;;;;;14.77;2.80;;;;;;;-2.56;97.42;102157.97;5033978;28;20029;-79
2020/12/25 07:53:53;;;;;;;7.38;2.28;;;;;;;-2.47;97.33;102161.25;5029147;28;20029;-76
2020/12/25 07:56:25;;;;;;;13.02;2.72;;;;;;;-2.55;97.28;102161.38;5031534;28;20064;-78
2020/12/25 07:58:52;;;;;;;9.23;2.20;;;;;;;-2.52;97.57;102169.06;5030280;28;20088;-77
2020/12/25 08:01:24;;;;;;;12.95;2.78;;;;;;;-2.53;97.30;102163.94;5029414;28;20120;-78
2020/12/25 08:03:50;;;;;;;6.53;2.75;;;;;;;-2.53;97.12;102159.63;5029942;28;20069;-77
2020/12/25 08:06:21;;;;;;;8.70;2.40;;;;;;;-2.46;97.32;102171.50;5012689;28;20036;-77
2020/12/25 08:09:09;;;;;;;8.00;2.28;;;;;;;-2.46;97.53;102174.06;4996524;28;20053;-77
2020/12/25 08:11:36;;;;;;;7.90;2.22;;;;;;;-2.37;97.25;102178.22;5025003;28;20033;-75
2020/12/25 08:14:05;;;;;;;8.73;1.77;;;;;;;-2.36;97.21;102178.16;5029781;28;20376;-76
2020/12/25 08:16:31;;;;;;;9.25;1.95;;;;;;;-2.38;97.08;102182.47;5032699;28;20098;-75
2020/12/25 08:18:57;;;;;;;7.82;2.10;;;;;;;-2.40;97.42;102176.53;5034023;28;20453;-76
2020/12/25 08:21:29;;;;;;;9.05;1.60;;;;;;;-2.42;97.14;102180.00;5030981;28;20696;-75
2020/12/25 08:23:57;;;;;;;8.02;1.70;;;;;;;-2.39;97.43;102185.94;5014269;28;20044;-77
2020/12/25 08:26:35;;;;;;;5.20;1.48;;;;;;;-2.36;97.62;102190.16;5033173;28;20113;-76
2020/12/25 08:29:00;;;;;;;3.83;1.30;;;;;;;-2.32;97.80;102194.38;5015650;28;20518;-77
2020/12/25 08:31:34;;;;;;;8.52;1.48;;;;;;;-2.29;97.59;102193.47;5016159;28;20040;-76
2020/12/25 08:34:00;;;;;;;6.47;1.60;;;;;;;-2.20;97.50;102198.47;5034681;28;20041;-77
2020/12/25 08:36:25;;;;;;;6.63;1.70;;;;;;;-2.24;97.25;102200.22;5033391;28;20034;-75
2020/12/25 08:38:50;;;;;;;9.45;2.25;;;;;;;-2.20;97.58;102199.28;5033888;28;20107;-76
2020/12/25 08:41:17;;;;;;;6.95;1.40;;;;;;;-2.16;97.09;102197.53;5032207;28;20553;-77
2020/12/25 08:43:43;;;;;;;4.80;1.50;;;;;;;-2.14;97.80;102202.63;5015166;28;20045;-77
2020/12/25 08:46:09;;;;;;;10.93;1.95;;;;;;;-2.07;97.83;102206.75;4999194;28;20043;-77
2020/12/25 08:48:47;;;;;;;11.13;1.90;;;;;;;-2.05;97.53;102207.59;5032282;28;20517;-76
2020/12/25 08:51:15;;;;;;;5.45;1.17;;;;;;;-1.97;97.59;102205.72;5016373;28;20091;-75
2020/12/25 08:53:53;;;;;;;6.55;1.48;;;;;;;-1.90;97.00;102209.88;5032301;28;20037;-76
2020/12/25 08:56:25;;;;;;;7.78;1.58;;;;;;;-1.86;97.49;102216.66;5014224;28;20041;-78
2020/12/25 08:58:59;;;;;;;10.38;1.38;;;;;;;-1.66;96.65;102218.78;5033539;28;20133;-77
2020/12/25 09:01:27;;;;;;;6.60;1.73;;;;;;;-1.70;96.60;102208.63;5033360;28;20040;-76
2020/12/25 09:03:53;;;;;;;12.38;2.22;;;;;;;-1.65;96.62;102220.50;5032034;28;20411;-76
2020/12/25 09:06:19;;;;;;;8.88;1.63;;;;;;;-1.69;96.76;102210.31;5016380;28;20407;-77
2020/12/25 09:08:45;;;;;;;7.13;1.63;;;;;;;-1.57;96.12;102217.78;5031342;28;20033;-77
2020/12/25 09:11:12;;;;;;;5.05;1.35;;;;;;;-1.52;96.32;102222.84;5033653;28;20427;-77
2020/12/25 09:13:38;;;;;;;8.43;1.50;;;;;;;-1.42;95.75;102225.16;5032109;28;20447;-78
2020/12/25 09:16:05;;;;;;;6.57;1.60;;;;;;;-1.35;94.90;102207.03;5015918;28;20029;-77
2020/12/25 09:18:30;;;;;;;5.75;1.75;;;;;;;-1.28;94.95;102217.16;5029311;28;20040;-77
2020/12/25 09:20:56;;;;;;;8.18;1.15;;;;;;;-1.27;95.01;102210.28;5031651;28;20041;-77
2020/12/25 09:23:21;;;;;;;9.48;1.95;;;;;;;-1.16;95.19;102220.34;5031148;28;20058;-78
2020/12/25 09:25:47;;;;;;;5.80;1.20;;;;;;;-1.05;92.92;102221.78;5033371;28;20491;-76
2020/12/25 09:28:12;;;;;;;7.30;2.05;;;;;;;-1.03;93.34;102226.91;5016519;28;20048;-77
2020/12/25 09:30:38;;;;;;;5.18;1.10;;;;;;;-0.98;93.36;102217.31;5013734;28;20072;-77
2020/12/25 09:33:03;;;;;;;12.20;1.42;;;;;;;-0.94;93.34;102226.69;5017155;28;20037;-74
2020/12/25 09:35:29;;;;;;;5.72;1.48;;;;;;;-0.87;92.43;102238.50;5041527;28;20118;-77
2020/12/25 09:37:54;;;;;;;10.70;2.10;;;;;;;-0.88;93.35;102236.00;5045812;28;20042;-78
2020/12/25 09:40:20;;;;;;;6.22;1.52;;;;;;;-0.87;92.50;102235.94;5043985;28;20033;-76
2020/12/25 09:42:45;;;;;;;3.65;1.35;;;;;;;-0.84;93.31;102246.19;5041546;28;20053;-79
2020/12/25 09:45:11;;;;;;;5.20;1.30;;;;;;;-0.81;92.56;102237.53;5007471;28;20047;-79
2020/12/25 09:47:36;;;;;;;6.45;1.30;;;;;;;-0.76;92.59;102245.16;5039494;28;20036;-78
2020/12/25 09:50:02;;;;;;;10.23;1.70;;;;;;;-0.75;92.50;102252.88;5040384;28;20037;-79
2020/12/25 09:52:28;;;;;;;7.78;1.50;;;;;;;-0.68;91.52;102248.38;5043105;28;20041;-78
2020/12/25 09:54:53;;;;;;;5.07;1.45;;;;;;;-0.53;90.72;102248.00;5018879;28;20037;-79
2020/12/25 09:57:19;;;;;;;7.63;1.75;;;;;;;-0.62;90.34;102241.38;5014917;28;20037;-76
2020/12/25 09:59:44;;;;;;;10.10;1.80;;;;;;;-0.40;88.40;102244.28;5031858;28;20538;-78
2020/12/25 10:02:10;;;;;;;9.55;1.83;;;;;;;-0.35;89.29;102244.13;5033307;28;20037;-76
2020/12/25 10:04:35;;;;;;;6.40;1.38;;;;;;;-0.34;87.54;102244.97;5031359;28;20048;-79
2020/12/25 10:07:01;;;;;;;8.68;1.60;;;;;;;-0.29;88.61;102243.97;5014568;28;20053;-78
2020/12/25 10:09:26;;;;;;;6.93;1.45;;;;;;;-0.32;89.04;102245.78;5024560;28;20049;-78
2020/12/25 10:11:54;;;;;;;8.73;1.63;;;;;;;-0.24;87.14;102246.44;5027447;28;20045;-78
2020/12/25 10:14:20;;;;;;;5.88;1.55;;;;;;;-0.22;87.43;102248.09;5030409;28;20037;-76
2020/12/25 10:16:45;;;;;;;8.82;1.63;;;;;;;-0.14;86.70;102247.88;5014511;28;20048;-78
2020/12/25 10:19:11;;;;;;;10.25;2.30;;;;;;;-0.08;86.99;102259.78;5031771;28;20029;-77
2020/12/25 10:21:36;;;;;;;7.90;2.33;;;;;;;-0.01;86.24;102266.47;5013905;28;20507;-78
2020/12/25 10:24:02;;;;;;;5.30;1.60;;;;;;;0.02;85.58;102268.97;5030168;28;20041;-78
2020/12/25 10:26:27;;;;;;;5.95;2.33;;;;;;;-0.07;88.35;102264.91;5030029;28;20049;-79
2020/12/25 10:28:53;;;;;;;10.43;1.70;;;;;;;-0.01;87.69;102253.56;5030428;28;20419;-77
2020/12/25 10:31:18;;;;;;;6.72;2.10;;;;;;;0.12;85.55;102248.94;5030323;28;20044;-76
2020/12/25 10:33:44;;;;;;;9.30;2.05;;;;;;;0.07;86.78;102259.34;5029027;28;20510;-77
2020/12/25 10:36:09;;;;;;;13.15;2.60;;;;;;;0.10;89.55;102261.88;5010694;28;20033;-78
2020/12/25 10:38:34;;;;;;;5.55;1.75;;;;;;;0.15;86.32;102262.59;5030473;28;20044;-77
2020/12/25 10:41:02;;;;;;;15.63;2.75;;;;;;;0.26;85.98;102264.84;4996346;28;20476;-77
2020/12/25 10:43:28;;;;;;;7.63;2.22;;;;;;;0.25;87.12;102264.94;4994345;28;20034;-77
2020/12/25 10:45:53;;;;;;;2.75;1.83;;;;;;;0.29;86.16;102264.78;5014577;28;20037;-76
2020/12/25 10:51:21;;;;;;;10.48;2.17;;;;;;;0.42;83.52;102267.03;4952435;29;20047;-79
2020/12/25 10:53:47;;;;;;;7.63;2.60;;;;;;;0.45;83.94;102272.94;4956056;29;20035;-80
2020/12/25 10:56:20;;;;;;;7.78;2.05;;;;;;;0.47;83.98;102270.31;4943063;29;20462;-80
2020/12/25 10:58:46;;;;;;;9.77;2.10;;;;;;;0.42;84.50;102274.78;4942763;29;20086;-80
2020/12/25 11:01:27;;;;;;;17.52;2.67;;;;;;;0.49;84.73;102268.53;4974564;28;20494;-80
2020/12/25 11:03:54;;;;;;;5.38;1.58;;;;;;;0.62;81.65;102275.03;4977750;28;20093;-79
2020/12/25 11:06:29;;;;;;;7.75;1.80;;;;;;;0.65;82.43;102268.94;4943056;29;20039;-79
2020/12/25 11:08:55;;;;;;;7.85;1.83;;;;;;;0.65;83.08;102266.34;4943206;29;20031;-80
2020/12/25 11:11:28;;;;;;;6.20;1.60;;;;;;;0.71;80.05;102264.44;4943010;29;20097;-80
2020/12/25 11:13:54;;;;;;;9.60;1.77;;;;;;;0.60;81.21;102260.47;4944413;29;20058;-81
2020/12/25 11:16:22;;;;;;;5.18;1.90;;;;;;;0.74;82.46;102269.50;4958838;29;20042;-79
2020/12/25 11:18:47;;;;;;;8.23;2.13;;;;;;;0.64;80.64;102244.00;4958641;29;20032;-80
2020/12/25 11:21:20;;;;;;;9.25;1.70;;;;;;;0.83;80.62;102262.38;4975193;28;20031;-79
2020/12/25 11:23:46;;;;;;;7.60;1.63;;;;;;;0.89;79.75;102247.53;4958462;29;20051;-78
2020/12/25 11:26:22;;;;;;;7.57;1.90;;;;;;;0.71;81.14;102237.75;4959152;29;20457;-78